sensor_id;sensor_type;location;lat;lon;timestamp;pressure;altitude;pressure_sealevel;temperature;humidity
5879;BME280;2965;42.640;23.370;2023-03-17T05:02:37;94733.63;;;2.92;100.00
5879;BME280;2965;42.640;23.370;2023-03-17T05:05:04;94729.16;;;2.94;100.00
5879;BME280;2965;42.640;23.370;2023-03-17T05:07:29;94736.75;;;2.95;100.00
5879;BME280;2965;42.640;23.370;2023-03-17T05:09:55;94744.50;;;2.55;100.00
5879;BME280;2965;42.640;23.370;2023-03-17T05:12:21;94743.78;;;2.22;100.00
5879;BME280;2965;42.640;23.370;2023-03-17T05:14:46;94753.97;;;2.03;100.00
5879;BME280;2965;42.640;23.370;2023-03-17T05:17:12;94756.63;;;1.92;100.00
5879;BME280;2965;42.640;23.370;2023-03-17T05:19:38;94750.88;;;1.88;100.00
5879;BME280;2965;42.640;23.370;2023-03-17T05:22:03;94757.84;;;1.76;100.00
5879;BME280;2965;42.640;23.370;2023-03-17T05:24:29;94755.34;;;1.65;100.00
5879;BME280;2965;42.640;23.370;2023-03-17T05:26:55;94766.78;;;1.72;100.00
5879;BME280;2965;42.640;23.370;2023-03-17T05:29:20;94768.09;;;1.67;100.00
5879;BME280;2965;42.640;23.370;2023-03-17T05:31:46;94763.06;;;1.65;100.00
5879;BME280;2965;42.640;23.370;2023-03-17T05:34:12;94768.00;;;1.57;100.00
5879;BME280;2965;42.640;23.370;2023-03-17T05:36:37;94765.31;;;1.59;100.00
5879;BME280;2965;42.640;23.370;2023-03-17T05:39:03;94762.34;;;1.63;100.00
5879;BME280;2965;42.640;23.370;2023-03-17T05:41:29;94772.19;;;1.69;100.00
5879;BME280;2965;42.640;23.370;2023-03-17T05:43:55;94773.59;;;1.73;100.00
5879;BME280;2965;42.640;23.370;2023-03-17T05:46:20;94765.50;;;1.67;100.00
5879;BME280;2965;42.640;23.370;2023-03-17T05:48:46;94766.09;;;1.70;100.00
5879;BME280;2965;42.640;23.370;2023-03-17T05:51:13;94774.78;;;1.69;100.00
5879;BME280;2965;42.640;23.370;2023-03-17T05:53:38;94774.41;;;1.74;100.00
5879;BME280;2965;42.640;23.370;2023-03-17T05:56:04;94769.31;;;1.84;100.00
5879;BME280;2965;42.640;23.370;2023-03-17T05:58:29;94780.47;;;1.84;100.00
5879;BME280;2965;42.640;23.370;2023-03-17T06:00:54;94784.38;;;1.99;100.00
5879;BME280;2965;42.640;23.370;2023-03-17T06:03:20;94784.69;;;2.06;100.00
5879;BME280;2965;42.640;23.370;2023-03-17T06:05:46;94793.88;;;1.99;100.00
5879;BME280;2965;42.640;23.370;2023-03-17T06:08:12;94793.88;;;1.99;100.00
5879;BME280;2965;42.640;23.370;2023-03-17T06:10:38;94803.28;;;2.00;100.00
5879;BME280;2965;42.640;23.370;2023-03-17T06:13:03;94806.31;;;1.94;100.00
5879;BME280;2965;42.640;23.370;2023-03-17T06:15:28;94810.31;;;1.98;100.00
5879;BME280;2965;42.640;23.370;2023-03-17T06:17:54;94818.31;;;1.95;100.00
5879;BME280;2965;42.640;23.370;2023-03-17T06:20:20;94815.25;;;1.90;100.00
5879;BME280;2965;42.640;23.370;2023-03-17T06:22:46;94827.91;;;1.93;100.00
5879;BME280;2965;42.640;23.370;2023-03-17T06:25:11;94831.00;;;1.87;100.00
5879;BME280;2965;42.640;23.370;2023-03-17T06:27:37;94830.06;;;1.88;100.00
5879;BME280;2965;42.640;23.370;2023-03-17T06:30:07;94835.91;;;1.90;100.00
5879;BME280;2965;42.640;23.370;2023-03-17T06:32:32;94830.25;;;1.96;100.00
5879;BME280;2965;42.640;23.370;2023-03-17T06:34:59;94819.66;;;1.99;100.00
5879;BME280;2965;42.640;23.370;2023-03-17T06:37:25;94839.09;;;2.14;100.00
5879;BME280;2965;42.640;23.370;2023-03-17T06:39:51;94831.56;;;2.22;100.00
5879;BME280;2965;42.640;23.370;2023-03-17T06:42:16;94835.09;;;2.21;100.00
5879;BME280;2965;42.640;23.370;2023-03-17T06:44:43;94837.78;;;2.41;100.00
5879;BME280;2965;42.640;23.370;2023-03-17T06:47:09;94840.56;;;2.49;100.00
5879;BME280;2965;42.640;23.370;2023-03-17T06:49:35;94850.00;;;2.60;100.00
5879;BME280;2965;42.640;23.370;2023-03-17T06:52:00;94846.03;;;2.76;100.00
5879;BME280;2965;42.640;23.370;2023-03-17T06:54:26;94847.41;;;2.81;100.00
5879;BME280;2965;42.640;23.370;2023-03-17T06:56:53;94848.28;;;2.91;100.00
5879;BME280;2965;42.640;23.370;2023-03-17T06:59:20;94855.78;;;2.94;100.00
5879;BME280;2965;42.640;23.370;2023-03-17T07:01:46;94852.41;;;3.03;100.00
5879;BME280;2965;42.640;23.370;2023-03-17T07:04:13;94860.38;;;3.21;100.00
5879;BME280;2965;42.640;23.370;2023-03-17T07:06:38;94857.59;;;3.03;100.00
5879;BME280;2965;42.640;23.370;2023-03-17T07:09:04;94863.91;;;3.10;100.00
5879;BME280;2965;42.640;23.370;2023-03-17T07:11:30;94864.09;;;2.97;100.00
5879;BME280;2965;42.640;23.370;2023-03-17T07:13:56;94866.38;;;2.91;100.00
5879;BME280;2965;42.640;23.370;2023-03-17T07:16:22;94867.47;;;2.88;100.00
5879;BME280;2965;42.640;23.370;2023-03-17T07:18:47;94858.50;;;2.71;100.00
5879;BME280;2965;42.640;23.370;2023-03-17T07:21:13;94863.16;;;2.77;100.00
5879;BME280;2965;42.640;23.370;2023-03-17T07:23:39;94868.31;;;2.77;100.00
5879;BME280;2965;42.640;23.370;2023-03-17T07:26:05;94870.53;;;2.82;100.00
5879;BME280;2965;42.640;23.370;2023-03-17T07:28:30;94869.53;;;2.94;100.00
5879;BME280;2965;42.640;23.370;2023-03-17T07:30:56;94867.75;;;2.95;100.00
5879;BME280;2965;42.640;23.370;2023-03-17T07:35:56;94883.22;;;3.16;100.00
5879;BME280;2965;42.640;23.370;2023-03-17T07:38:21;94881.03;;;3.11;100.00
5879;BME280;2965;42.640;23.370;2023-03-17T07:40:47;94882.09;;;3.09;100.00
5879;BME280;2965;42.640;23.370;2023-03-17T07:43:14;94877.56;;;3.01;100.00
5879;BME280;2965;42.640;23.370;2023-03-17T07:45:43;94887.22;;;2.99;100.00
5879;BME280;2965;42.640;23.370;2023-03-17T07:48:09;94889.38;;;2.94;100.00
5879;BME280;2965;42.640;23.370;2023-03-17T07:50:35;94887.47;;;2.96;100.00
5879;BME280;2965;42.640;23.370;2023-03-17T07:53:02;94884.28;;;3.13;100.00
5879;BME280;2965;42.640;23.370;2023-03-17T07:55:29;94888.38;;;3.37;100.00
5879;BME280;2965;42.640;23.370;2023-03-17T07:57:54;94892.31;;;3.41;100.00
5879;BME280;2965;42.640;23.370;2023-03-17T08:00:20;94888.84;;;3.61;100.00
5879;BME280;2965;42.640;23.370;2023-03-17T08:02:48;94896.50;;;3.72;100.00
5879;BME280;2965;42.640;23.370;2023-03-17T08:05:14;94895.41;;;3.65;100.00
5879;BME280;2965;42.640;23.370;2023-03-17T08:07:39;94896.19;;;3.56;100.00
5879;BME280;2965;42.640;23.370;2023-03-17T08:10:06;94898.34;;;3.51;100.00
5879;BME280;2965;42.640;23.370;2023-03-17T08:12:32;94909.66;;;3.50;100.00
5879;BME280;2965;42.640;23.370;2023-03-17T08:14:57;94908.69;;;3.51;100.00
5879;BME280;2965;42.640;23.370;2023-03-17T08:17:23;94903.56;;;3.70;100.00
5879;BME280;2965;42.640;23.370;2023-03-17T08:19:52;94901.94;;;3.69;100.00
5879;BME280;2965;42.640;23.370;2023-03-17T08:22:18;94901.41;;;3.75;100.00
5879;BME280;2965;42.640;23.370;2023-03-17T08:24:43;94900.34;;;3.78;100.00
5879;BME280;2965;42.640;23.370;2023-03-17T08:27:09;94898.03;;;3.85;100.00
5879;BME280;2965;42.640;23.370;2023-03-17T08:29:34;94904.72;;;3.87;100.00
5879;BME280;2965;42.640;23.370;2023-03-17T08:32:00;94918.03;;;3.73;100.00
5879;BME280;2965;42.640;23.370;2023-03-17T08:34:25;94914.25;;;3.96;100.00
5879;BME280;2965;42.640;23.370;2023-03-17T08:36:51;94904.47;;;4.00;100.00
5879;BME280;2965;42.640;23.370;2023-03-17T08:39:16;94908.28;;;4.15;100.00
5879;BME280;2965;42.640;23.370;2023-03-17T08:41:42;94910.22;;;4.33;100.00
5879;BME280;2965;42.640;23.370;2023-03-17T08:44:08;94912.97;;;4.31;100.00
5879;BME280;2965;42.640;23.370;2023-03-17T08:46:34;94905.75;;;4.35;100.00
5879;BME280;2965;42.640;23.370;2023-03-17T08:49:00;94908.84;;;4.28;100.00
5879;BME280;2965;42.640;23.370;2023-03-17T08:51:30;94912.00;;;4.32;100.00
5879;BME280;2965;42.640;23.370;2023-03-17T08:53:56;94918.69;;;4.35;100.00
5879;BME280;2965;42.640;23.370;2023-03-17T08:56:22;94915.69;;;4.39;100.00
5879;BME280;2965;42.640;23.370;2023-03-17T08:58:48;94919.50;;;4.45;100.00
5879;BME280;2965;42.640;23.370;2023-03-17T09:01:14;94926.84;;;4.69;100.00
5879;BME280;2965;42.640;23.370;2023-03-17T09:03:40;94918.25;;;4.78;100.00
5879;BME280;2965;42.640;23.370;2023-03-17T09:06:08;94923.28;;;4.99;100.00
5879;BME280;2965;42.640;23.370;2023-03-17T09:08:36;94932.03;;;4.98;100.00
5879;BME280;2965;42.640;23.370;2023-03-17T09:11:06;94931.19;;;5.07;100.00
5879;BME280;2965;42.640;23.370;2023-03-17T09:13:33;94930.34;;;5.16;100.00
5879;BME280;2965;42.640;23.370;2023-03-17T09:15:59;94935.28;;;5.00;100.00
5879;BME280;2965;42.640;23.370;2023-03-17T09:18:25;94928.47;;;4.99;100.00
5879;BME280;2965;42.640;23.370;2023-03-17T09:20:51;94927.09;;;4.95;100.00
5879;BME280;2965;42.640;23.370;2023-03-17T09:23:17;94939.34;;;5.12;100.00
5879;BME280;2965;42.640;23.370;2023-03-17T09:25:42;94936.63;;;5.04;100.00
5879;BME280;2965;42.640;23.370;2023-03-17T09:28:12;94944.31;;;5.05;100.00
5879;BME280;2965;42.640;23.370;2023-03-17T09:30:41;94929.81;;;5.22;100.00
5879;BME280;2965;42.640;23.370;2023-03-17T09:33:10;94929.75;;;5.42;100.00
5879;BME280;2965;42.640;23.370;2023-03-17T09:35:36;94939.22;;;5.23;100.00
5879;BME280;2965;42.640;23.370;2023-03-17T09:38:02;94939.50;;;5.57;100.00
5879;BME280;2965;42.640;23.370;2023-03-17T09:40:44;94948.56;;;5.53;100.00
5879;BME280;2965;42.640;23.370;2023-03-17T09:45:49;94956.81;;;5.76;100.00
5879;BME280;2965;42.640;23.370;2023-03-17T09:51:30;94960.31;;;5.85;100.00
5879;BME280;2965;42.640;23.370;2023-03-17T09:54:03;94966.84;;;5.52;100.00
5879;BME280;2965;42.640;23.370;2023-03-17T09:56:32;94968.38;;;5.35;100.00
5879;BME280;2965;42.640;23.370;2023-03-17T09:59:04;94962.69;;;5.69;100.00
5879;BME280;2965;42.640;23.370;2023-03-17T10:01:29;94953.19;;;5.87;100.00
5879;BME280;2965;42.640;23.370;2023-03-17T10:03:55;94960.16;;;5.87;100.00
5879;BME280;2965;42.640;23.370;2023-03-17T10:06:26;94966.09;;;5.69;100.00
5879;BME280;2965;42.640;23.370;2023-03-17T10:09:33;94975.25;;;5.73;100.00
5879;BME280;2965;42.640;23.370;2023-03-17T10:18:14;94976.34;;;5.71;100.00
5879;BME280;2965;42.640;23.370;2023-03-17T10:21:12;94984.69;;;5.65;100.00
5879;BME280;2965;42.640;23.370;2023-03-17T10:23:41;94983.53;;;5.87;100.00
5879;BME280;2965;42.640;23.370;2023-03-17T10:26:30;94989.19;;;5.72;100.00
5879;BME280;2965;42.640;23.370;2023-03-17T10:28:57;94991.84;;;6.00;100.00
5879;BME280;2965;42.640;23.370;2023-03-17T10:31:29;94988.69;;;6.24;100.00
5879;BME280;2965;42.640;23.370;2023-03-17T10:34:06;94984.81;;;6.38;100.00
5879;BME280;2965;42.640;23.370;2023-03-17T10:36:38;94979.97;;;6.25;100.00
5879;BME280;2965;42.640;23.370;2023-03-17T10:39:06;94986.13;;;6.42;100.00
5879;BME280;2965;42.640;23.370;2023-03-17T10:41:35;94973.69;;;6.45;100.00
5879;BME280;2965;42.640;23.370;2023-03-17T10:44:00;94979.53;;;6.29;100.00
5879;BME280;2965;42.640;23.370;2023-03-17T10:46:26;94972.63;;;6.20;100.00
5879;BME280;2965;42.640;23.370;2023-03-17T10:49:02;94979.81;;;6.26;100.00
5879;BME280;2965;42.640;23.370;2023-03-17T10:51:32;94975.38;;;6.37;100.00
5879;BME280;2965;42.640;23.370;2023-03-17T10:56:49;94967.97;;;6.14;100.00
5879;BME280;2965;42.640;23.370;2023-03-17T10:59:26;94961.88;;;6.33;100.00
5879;BME280;2965;42.640;23.370;2023-03-17T11:01:55;94958.44;;;6.32;100.00
5879;BME280;2965;42.640;23.370;2023-03-17T11:04:29;94956.09;;;6.39;100.00
5879;BME280;2965;42.640;23.370;2023-03-17T11:06:58;94950.88;;;6.39;100.00
5879;BME280;2965;42.640;23.370;2023-03-17T11:09:25;94948.13;;;6.41;100.00
5879;BME280;2965;42.640;23.370;2023-03-17T11:14:49;94941.91;;;6.69;100.00
5879;BME280;2965;42.640;23.370;2023-03-17T11:22:44;94932.97;;;6.90;96.19
5879;BME280;2965;42.640;23.370;2023-03-17T11:25:15;94929.72;;;6.88;92.53
5879;BME280;2965;42.640;23.370;2023-03-17T11:32:58;94940.94;;;6.88;100.00
5879;BME280;2965;42.640;23.370;2023-03-17T11:35:44;94935.66;;;7.24;99.95
5879;BME280;2965;42.640;23.370;2023-03-17T11:41:40;94932.72;;;7.19;98.05
5879;BME280;2965;42.640;23.370;2023-03-17T11:47:02;94933.16;;;7.14;91.75
5879;BME280;2965;42.640;23.370;2023-03-17T11:49:36;94932.59;;;7.28;93.43
5879;BME280;2965;42.640;23.370;2023-03-17T11:52:28;94926.19;;;7.41;95.36
5879;BME280;2965;42.640;23.370;2023-03-17T11:57:52;94934.22;;;7.81;83.21
5879;BME280;2965;42.640;23.370;2023-03-17T12:00:36;94935.91;;;7.65;86.13
5879;BME280;2965;42.640;23.370;2023-03-17T12:05:44;94927.78;;;7.68;82.75
5879;BME280;2965;42.640;23.370;2023-03-17T12:10:52;94921.59;;;8.03;83.25
5879;BME280;2965;42.640;23.370;2023-03-17T12:13:27;94916.63;;;8.26;82.73
5879;BME280;2965;42.640;23.370;2023-03-17T12:26:57;94905.44;;;8.42;78.79
5879;BME280;2965;42.640;23.370;2023-03-17T12:29:43;94901.78;;;8.26;79.24
5879;BME280;2965;42.640;23.370;2023-03-17T12:32:22;94904.38;;;8.18;84.46
5879;BME280;2965;42.640;23.370;2023-03-17T12:34:55;94909.56;;;8.18;77.62
5879;BME280;2965;42.640;23.370;2023-03-17T12:37:22;94903.16;;;8.63;76.35
5879;BME280;2965;42.640;23.370;2023-03-17T12:53:46;94901.41;;;8.96;75.73
5879;BME280;2965;42.640;23.370;2023-03-17T12:56:20;94894.88;;;8.76;76.35
5879;BME280;2965;42.640;23.370;2023-03-17T12:58:57;94901.91;;;8.92;75.24
5879;BME280;2965;42.640;23.370;2023-03-17T13:01:30;94901.41;;;9.13;78.17
5879;BME280;2965;42.640;23.370;2023-03-17T13:04:08;94892.69;;;9.37;72.54
5879;BME280;2965;42.640;23.370;2023-03-17T13:07:02;94899.94;;;9.74;74.20
5879;BME280;2965;42.640;23.370;2023-03-17T13:11:55;94900.72;;;9.10;75.92
5879;BME280;2965;42.640;23.370;2023-03-17T13:17:02;94903.78;;;9.47;80.59
5879;BME280;2965;42.640;23.370;2023-03-17T13:19:32;94900.44;;;10.48;77.33
5879;BME280;2965;42.640;23.370;2023-03-17T13:27:39;94894.38;;;10.93;64.95
5879;BME280;2965;42.640;23.370;2023-03-17T13:32:55;94892.38;;;11.85;67.68
5879;BME280;2965;42.640;23.370;2023-03-17T13:35:35;94887.66;;;10.99;68.54
5879;BME280;2965;42.640;23.370;2023-03-17T13:43:31;94900.75;;;10.99;70.37
5879;BME280;2965;42.640;23.370;2023-03-17T13:49:01;94903.94;;;11.09;65.20
5879;BME280;2965;42.640;23.370;2023-03-17T13:51:37;94894.19;;;11.18;63.39
5879;BME280;2965;42.640;23.370;2023-03-17T13:54:18;94891.97;;;11.29;64.05
5879;BME280;2965;42.640;23.370;2023-03-17T13:59:20;94891.97;;;11.44;64.26
5879;BME280;2965;42.640;23.370;2023-03-17T14:02:00;94897.78;;;11.69;60.87
5879;BME280;2965;42.640;23.370;2023-03-17T14:04:52;94891.59;;;10.49;62.71
5879;BME280;2965;42.640;23.370;2023-03-17T14:07:21;94898.50;;;10.10;64.35
5879;BME280;2965;42.640;23.370;2023-03-17T14:09:50;94896.38;;;10.14;64.90
5879;BME280;2965;42.640;23.370;2023-03-17T14:18:28;94896.84;;;10.95;65.94
5879;BME280;2965;42.640;23.370;2023-03-17T14:20:57;94906.34;;;11.63;64.07
5879;BME280;2965;42.640;23.370;2023-03-17T14:23:23;94900.44;;;11.31;63.48
5879;BME280;2965;42.640;23.370;2023-03-17T14:25:49;94908.84;;;11.42;60.68
5879;BME280;2965;42.640;23.370;2023-03-17T14:28:17;94902.78;;;10.89;61.39
5879;BME280;2965;42.640;23.370;2023-03-17T14:30:52;94910.34;;;10.83;63.70
5879;BME280;2965;42.640;23.370;2023-03-17T14:33:22;94911.59;;;11.10;63.82
5879;BME280;2965;42.640;23.370;2023-03-17T14:35:50;94903.81;;;10.79;62.01
5879;BME280;2965;42.640;23.370;2023-03-17T14:38:21;94910.13;;;11.31;63.48
5879;BME280;2965;42.640;23.370;2023-03-17T14:40:47;94902.53;;;11.51;61.41
5879;BME280;2965;42.640;23.370;2023-03-17T14:43:14;94908.50;;;11.45;59.50
5879;BME280;2965;42.640;23.370;2023-03-17T14:48:12;94906.69;;;11.30;60.38
5879;BME280;2965;42.640;23.370;2023-03-17T14:50:48;94902.97;;;9.94;62.32
5879;BME280;2965;42.640;23.370;2023-03-17T14:53:15;94913.16;;;9.80;65.89
5879;BME280;2965;42.640;23.370;2023-03-17T14:55:41;94909.56;;;9.09;66.18
5879;BME280;2965;42.640;23.370;2023-03-17T14:58:09;94916.56;;;8.68;68.44
5879;BME280;2965;42.640;23.370;2023-03-17T15:00:43;94903.16;;;9.28;68.34
5879;BME280;2965;42.640;23.370;2023-03-17T15:03:18;94912.28;;;9.41;68.24
5879;BME280;2965;42.640;23.370;2023-03-17T15:05:44;94905.13;;;9.10;68.55
5879;BME280;2965;42.640;23.370;2023-03-17T15:11:02;94910.19;;;9.20;68.97
5879;BME280;2965;42.640;23.370;2023-03-17T15:13:32;94916.56;;;9.17;69.04
5879;BME280;2965;42.640;23.370;2023-03-17T15:16:04;94928.94;;;9.23;69.38
5879;BME280;2965;42.640;23.370;2023-03-17T15:18:30;94925.69;;;8.80;71.64
5879;BME280;2965;42.640;23.370;2023-03-17T15:20:56;94932.50;;;8.49;73.66
5879;BME280;2965;42.640;23.370;2023-03-17T15:23:23;94927.44;;;8.05;74.94
5879;BME280;2965;42.640;23.370;2023-03-17T15:25:54;94931.56;;;7.73;77.18
5879;BME280;2965;42.640;23.370;2023-03-17T15:28:22;94936.16;;;7.79;76.70
5879;BME280;2965;42.640;23.370;2023-03-17T15:30:50;94927.44;;;8.39;82.56
5879;BME280;2965;42.640;23.370;2023-03-17T15:35:53;94941.88;;;8.25;76.41
5879;BME280;2965;42.640;23.370;2023-03-17T15:38:21;94941.13;;;7.99;78.01
5879;BME280;2965;42.640;23.370;2023-03-17T15:40:47;94941.63;;;7.68;78.24
5879;BME280;2965;42.640;23.370;2023-03-17T15:43:17;94952.03;;;7.68;79.42
5879;BME280;2965;42.640;23.370;2023-03-17T15:45:47;94948.41;;;7.61;79.03
5879;BME280;2965;42.640;23.370;2023-03-17T15:48:21;94945.44;;;7.82;78.42
5879;BME280;2965;42.640;23.370;2023-03-17T15:50:51;94964.53;;;7.91;78.49
5879;BME280;2965;42.640;23.370;2023-03-17T15:53:18;94954.09;;;7.91;77.80
5879;BME280;2965;42.640;23.370;2023-03-17T15:55:43;94954.75;;;7.84;78.53
5879;BME280;2965;42.640;23.370;2023-03-17T15:58:09;94950.84;;;7.89;78.36
5879;BME280;2965;42.640;23.370;2023-03-17T16:00:35;94949.06;;;7.89;77.89
5879;BME280;2965;42.640;23.370;2023-03-17T16:03:22;94950.50;;;7.83;79.05
5879;BME280;2965;42.640;23.370;2023-03-17T16:05:48;94948.63;;;7.68;79.47
5879;BME280;2965;42.640;23.370;2023-03-17T16:08:15;94953.84;;;7.42;83.19
5879;BME280;2965;42.640;23.370;2023-03-17T16:10:42;94953.81;;;7.16;83.21
5879;BME280;2965;42.640;23.370;2023-03-17T16:13:08;94964.66;;;7.29;81.05
5879;BME280;2965;42.640;23.370;2023-03-17T16:15:37;94961.91;;;7.13;83.08
5879;BME280;2965;42.640;23.370;2023-03-17T16:18:05;94964.63;;;7.03;84.63
5879;BME280;2965;42.640;23.370;2023-03-17T16:20:38;94960.31;;;6.94;84.01
5879;BME280;2965;42.640;23.370;2023-03-17T16:23:07;94965.94;;;7.07;84.65
5879;BME280;2965;42.640;23.370;2023-03-17T16:25:36;94971.22;;;7.15;84.62
5879;BME280;2965;42.640;23.370;2023-03-17T16:28:12;94961.56;;;7.07;86.44
5879;BME280;2965;42.640;23.370;2023-03-17T16:30:38;94960.53;;;7.00;86.78
5879;BME280;2965;42.640;23.370;2023-03-17T16:35:39;94965.69;;;6.74;81.77
5879;BME280;2965;42.640;23.370;2023-03-17T16:38:05;94966.50;;;6.75;83.17
5879;BME280;2965;42.640;23.370;2023-03-17T16:40:36;94975.34;;;6.82;83.93
5879;BME280;2965;42.640;23.370;2023-03-17T16:43:03;94971.47;;;6.68;86.21
5879;BME280;2965;42.640;23.370;2023-03-17T16:45:32;94971.41;;;6.78;87.10
5879;BME280;2965;42.640;23.370;2023-03-17T16:47:59;94967.84;;;6.79;87.85
5879;BME280;2965;42.640;23.370;2023-03-17T16:50:28;94974.28;;;6.93;87.85
5879;BME280;2965;42.640;23.370;2023-03-17T16:52:54;94974.44;;;7.09;87.26
5879;BME280;2965;42.640;23.370;2023-03-17T16:55:21;94974.59;;;6.90;92.08
5879;BME280;2965;42.640;23.370;2023-03-17T16:57:48;94973.16;;;6.60;92.04
5879;BME280;2965;42.640;23.370;2023-03-17T17:00:20;94970.59;;;6.77;92.58
5879;BME280;2965;42.640;23.370;2023-03-17T17:02:46;94964.50;;;6.87;94.08
5879;BME280;2965;42.640;23.370;2023-03-17T17:05:14;94965.41;;;6.77;91.23
5879;BME280;2965;42.640;23.370;2023-03-17T17:07:39;94969.84;;;6.85;89.57
5879;BME280;2965;42.640;23.370;2023-03-17T17:10:05;94971.31;;;6.88;88.19
5879;BME280;2965;42.640;23.370;2023-03-17T17:12:30;94973.84;;;6.79;89.15
5879;BME280;2965;42.640;23.370;2023-03-17T17:14:56;94973.47;;;6.74;89.08
5879;BME280;2965;42.640;23.370;2023-03-17T17:17:21;94979.66;;;6.73;87.79
5879;BME280;2965;42.640;23.370;2023-03-17T17:19:47;94982.38;;;6.72;86.62
5879;BME280;2965;42.640;23.370;2023-03-17T17:22:12;94973.94;;;6.70;87.12
5879;BME280;2965;42.640;23.370;2023-03-17T17:24:37;94986.19;;;6.77;85.76
5879;BME280;2965;42.640;23.370;2023-03-17T17:27:03;94980.69;;;6.80;86.21
5879;BME280;2965;42.640;23.370;2023-03-17T17:29:28;94980.31;;;6.75;87.13
5879;BME280;2965;42.640;23.370;2023-03-17T17:31:54;94981.84;;;6.68;87.14
5879;BME280;2965;42.640;23.370;2023-03-17T17:34:20;94986.03;;;6.61;86.00
5879;BME280;2965;42.640;23.370;2023-03-17T17:36:45;94984.97;;;6.54;87.10
5879;BME280;2965;42.640;23.370;2023-03-17T17:39:11;94992.63;;;6.38;86.89
5879;BME280;2965;42.640;23.370;2023-03-17T17:41:36;94985.38;;;6.31;88.17
5879;BME280;2965;42.640;23.370;2023-03-17T17:44:01;94993.09;;;6.23;90.64
5879;BME280;2965;42.640;23.370;2023-03-17T17:46:27;94991.19;;;6.25;91.22
5879;BME280;2965;42.640;23.370;2023-03-17T17:48:52;94986.53;;;6.19;90.19
5879;BME280;2965;42.640;23.370;2023-03-17T17:51:18;94989.97;;;6.20;88.76
5879;BME280;2965;42.640;23.370;2023-03-17T17:53:43;95001.09;;;6.12;89.57
5879;BME280;2965;42.640;23.370;2023-03-17T17:56:13;94997.03;;;6.00;89.26
5879;BME280;2965;42.640;23.370;2023-03-17T17:58:38;94995.16;;;5.92;89.37
5879;BME280;2965;42.640;23.370;2023-03-17T18:01:04;94989.31;;;5.80;90.85
5879;BME280;2965;42.640;23.370;2023-03-17T18:06:11;94992.78;;;5.52;91.18
5879;BME280;2965;42.640;23.370;2023-03-17T18:08:37;94995.00;;;5.47;92.11
5879;BME280;2965;42.640;23.370;2023-03-17T18:11:03;94996.81;;;5.37;93.44
5879;BME280;2965;42.640;23.370;2023-03-17T18:13:29;95000.22;;;5.27;96.22
5879;BME280;2965;42.640;23.370;2023-03-17T18:15:55;95001.31;;;5.25;97.22
5879;BME280;2965;42.640;23.370;2023-03-17T18:18:20;94995.31;;;5.24;96.70
5879;BME280;2965;42.640;23.370;2023-03-17T18:20:45;94991.78;;;5.06;95.25
5879;BME280;2965;42.640;23.370;2023-03-17T18:23:11;95000.00;;;4.92;96.72
5879;BME280;2965;42.640;23.370;2023-03-17T18:25:37;94992.91;;;4.74;98.40
5879;BME280;2965;42.640;23.370;2023-03-17T18:28:02;94993.41;;;4.68;100.00
5879;BME280;2965;42.640;23.370;2023-03-17T18:30:29;94995.75;;;4.71;100.00
5879;BME280;2965;42.640;23.370;2023-03-17T18:33:14;94994.94;;;4.61;100.00
5879;BME280;2965;42.640;23.370;2023-03-17T18:35:43;94996.69;;;4.51;100.00
5879;BME280;2965;42.640;23.370;2023-03-17T18:38:10;94990.41;;;4.44;100.00
5879;BME280;2965;42.640;23.370;2023-03-17T18:40:35;94999.66;;;4.37;100.00
5879;BME280;2965;42.640;23.370;2023-03-17T18:43:01;94993.00;;;4.44;100.00
5879;BME280;2965;42.640;23.370;2023-03-17T18:45:26;94997.78;;;4.39;100.00
5879;BME280;2965;42.640;23.370;2023-03-17T18:47:51;94999.91;;;4.34;100.00
5879;BME280;2965;42.640;23.370;2023-03-17T18:50:17;94997.44;;;4.22;100.00
5879;BME280;2965;42.640;23.370;2023-03-17T18:52:44;95000.03;;;4.22;100.00
5879;BME280;2965;42.640;23.370;2023-03-17T18:55:11;94996.34;;;4.25;100.00
5879;BME280;2965;42.640;23.370;2023-03-17T18:57:37;95002.72;;;4.11;100.00
5879;BME280;2965;42.640;23.370;2023-03-17T19:00:04;95007.47;;;4.06;100.00
5879;BME280;2965;42.640;23.370;2023-03-17T19:02:30;95012.81;;;4.04;100.00
5879;BME280;2965;42.640;23.370;2023-03-17T19:04:55;95015.66;;;4.01;100.00
5879;BME280;2965;42.640;23.370;2023-03-17T19:07:21;95007.31;;;3.98;100.00
5879;BME280;2965;42.640;23.370;2023-03-17T19:09:46;95011.25;;;3.92;100.00
5879;BME280;2965;42.640;23.370;2023-03-17T19:12:12;95004.13;;;3.85;100.00
5879;BME280;2965;42.640;23.370;2023-03-17T19:14:38;95002.06;;;3.78;100.00
5879;BME280;2965;42.640;23.370;2023-03-17T19:17:05;95002.06;;;3.78;100.00
5879;BME280;2965;42.640;23.370;2023-03-17T19:19:32;95001.41;;;3.76;100.00
5879;BME280;2965;42.640;23.370;2023-03-17T19:21:58;95000.94;;;3.71;100.00
5879;BME280;2965;42.640;23.370;2023-03-17T19:24:24;94996.91;;;3.78;100.00
5879;BME280;2965;42.640;23.370;2023-03-17T19:26:50;94994.44;;;3.77;100.00
5879;BME280;2965;42.640;23.370;2023-03-17T19:29:15;95007.25;;;3.78;100.00
5879;BME280;2965;42.640;23.370;2023-03-17T19:31:42;94994.47;;;3.87;100.00
5879;BME280;2965;42.640;23.370;2023-03-17T19:34:08;94999.53;;;3.88;100.00
5879;BME280;2965;42.640;23.370;2023-03-17T19:36:36;95000.84;;;3.73;100.00
5879;BME280;2965;42.640;23.370;2023-03-17T19:39:04;94991.69;;;3.69;100.00
5879;BME280;2965;42.640;23.370;2023-03-17T19:41:29;94990.16;;;3.66;100.00
5879;BME280;2965;42.640;23.370;2023-03-17T19:44:00;94985.00;;;3.66;100.00
5879;BME280;2965;42.640;23.370;2023-03-17T19:46:29;94987.16;;;3.61;100.00
5879;BME280;2965;42.640;23.370;2023-03-17T19:48:54;94982.06;;;3.50;100.00
5879;BME280;2965;42.640;23.370;2023-03-17T19:51:24;94977.59;;;3.52;100.00
5879;BME280;2965;42.640;23.370;2023-03-17T19:53:52;94971.91;;;3.07;100.00
5879;BME280;2965;42.640;23.370;2023-03-17T19:56:18;94976.97;;;3.18;100.00
5879;BME280;2965;42.640;23.370;2023-03-17T19:58:43;94967.63;;;3.26;100.00
5879;BME280;2965;42.640;23.370;2023-03-17T20:01:09;94968.16;;;3.20;100.00
5879;BME280;2965;42.640;23.370;2023-03-17T20:03:34;94971.56;;;3.21;100.00
5879;BME280;2965;42.640;23.370;2023-03-17T20:06:03;94973.34;;;3.20;100.00
5879;BME280;2965;42.640;23.370;2023-03-17T20:08:31;94964.88;;;3.18;100.00
5879;BME280;2965;42.640;23.370;2023-03-17T20:10:56;94971.31;;;3.24;100.00
5879;BME280;2965;42.640;23.370;2023-03-17T20:13:22;94970.88;;;3.19;100.00
5879;BME280;2965;42.640;23.370;2023-03-17T20:15:48;94972.81;;;3.26;100.00